Time;durP1;ratioP1;P1;durP2;ratioP2;P2;SDS_P1;SDS_P2;PMS_P1;PMS_P2;Temp;Humidity;BMP_temperature;BMP_pressure;BME280_temperature;BME280_humidity;BME280_pressure;Samples;Min_cycle;Max_cycle;Signal;HPM_P1;HPM_P2
2023/10/06 00:00:40;;;;;;;3.95;1.67;;;13.00;99.90;;;;;;4993092;28;20499;-74
2023/10/06 00:03:10;;;;;;;5.18;1.40;;;12.90;99.90;;;;;;4994228;28;20833;-73
2023/10/06 00:05:38;;;;;;;5.00;1.67;;;12.90;99.90;;;;;;4996302;28;20049;-73
2023/10/06 00:08:07;;;;;;;4.47;2.13;;;12.90;99.90;;;;;;5002477;28;20045;-74
2023/10/06 00:10:35;;;;;;;4.45;1.60;;;12.80;99.90;;;;;;4999469;28;20519;-73
2023/10/06 00:13:05;;;;;;;4.25;2.33;;;12.80;99.90;;;;;;4993686;28;20036;-74
2023/10/06 00:15:43;;;;;;;5.15;2.08;;;12.80;99.90;;;;;;4984305;28;20408;-74
2023/10/06 00:18:16;;;;;;;4.53;2.05;;;12.80;99.90;;;;;;4991192;28;20057;-73
2023/10/06 00:20:49;;;;;;;5.20;2.45;;;12.80;99.90;;;;;;4976733;28;20030;-73
2023/10/06 00:23:21;;;;;;;6.20;2.33;;;12.80;99.90;;;;;;4993870;28;20052;-73
2023/10/06 00:25:51;;;;;;;3.95;1.52;;;12.70;99.90;;;;;;4995180;28;20550;-73
2023/10/06 00:28:32;;;;;;;4.03;1.83;;;12.70;99.90;;;;;;5014183;28;20038;-73
2023/10/06 00:31:08;;;;;;;4.07;1.50;;;12.70;99.90;;;;;;4983197;28;20037;-74
2023/10/06 00:33:38;;;;;;;2.85;1.15;;;12.70;99.90;;;;;;4974361;28;21144;-73
2023/10/06 00:36:16;;;;;;;3.78;1.55;;;12.70;99.90;;;;;;4976485;28;22804;-74
2023/10/06 00:38:50;;;;;;;3.67;1.63;;;12.60;99.90;;;;;;4992193;28;20080;-73
2023/10/06 00:41:20;;;;;;;2.70;1.50;;;12.60;99.90;;;;;;4993217;28;20388;-74
2023/10/06 00:43:46;;;;;;;4.43;1.98;;;12.60;99.90;;;;;;4975969;28;20033;-73
2023/10/06 00:46:14;;;;;;;3.00;1.20;;;12.60;99.90;;;;;;4998457;28;20033;-74
2023/10/06 00:48:45;;;;;;;3.35;1.65;;;12.60;99.90;;;;;;4985307;28;20037;-74
2023/10/06 00:51:19;;;;;;;4.13;1.80;;;12.50;99.90;;;;;;4992639;28;20030;-73
2023/10/06 00:53:46;;;;;;;4.10;1.90;;;12.50;99.90;;;;;;4959743;28;20069;-73
2023/10/06 00:56:16;;;;;;;8.20;2.10;;;12.50;99.90;;;;;;4977858;28;20048;-73
2023/10/06 00:58:43;;;;;;;3.00;1.77;;;12.50;99.90;;;;;;4997212;28;20044;-74
2023/10/06 01:01:17;;;;;;;3.47;1.77;;;12.50;99.90;;;;;;4963493;28;20045;-73
2023/10/06 01:03:44;;;;;;;3.25;1.83;;;12.50;99.90;;;;;;4979798;28;20041;-74
2023/10/06 01:06:15;;;;;;;2.67;1.70;;;12.50;99.90;;;;;;4999002;28;20025;-74
2023/10/06 01:08:45;;;;;;;6.07;2.75;;;12.50;99.90;;;;;;4992174;28;20029;-74
2023/10/06 01:11:17;;;;;;;7.68;2.80;;;12.50;99.90;;;;;;4972623;28;20025;-74
2023/10/06 01:13:56;;;;;;;4.22;1.95;;;12.50;99.90;;;;;;4975664;28;20230;-74
2023/10/06 01:16:30;;;;;;;7.53;2.95;;;12.50;99.90;;;;;;4977608;28;20124;-73
2023/10/06 01:19:14;;;;;;;3.45;2.25;;;12.50;99.90;;;;;;4995463;28;20040;-74
2023/10/06 01:21:47;;;;;;;9.15;3.17;;;12.50;99.90;;;;;;4961379;28;20036;-74
2023/10/06 01:24:24;;;;;;;7.90;3.95;;;12.50;99.90;;;;;;4977031;28;20029;-73
2023/10/06 01:26:58;;;;;;;6.90;3.45;;;12.50;99.90;;;;;;5003674;28;20040;-74
2023/10/06 01:29:29;;;;;;;6.63;3.13;;;12.50;99.90;;;;;;4998016;28;20037;-74
2023/10/06 01:31:56;;;;;;;5.68;2.42;;;12.50;99.90;;;;;;4981177;28;20033;-74
2023/10/06 01:34:24;;;;;;;4.35;2.50;;;12.50;99.90;;;;;;4977775;28;20025;-73
2023/10/06 01:36:54;;;;;;;4.03;1.98;;;12.50;99.90;;;;;;4994942;28;20440;-74
2023/10/06 01:39:25;;;;;;;6.70;2.35;;;12.50;99.90;;;;;;4973304;28;20056;-74
2023/10/06 01:41:53;;;;;;;3.75;2.15;;;12.50;99.90;;;;;;4990489;28;20045;-73
2023/10/06 01:44:19;;;;;;;5.20;3.25;;;12.50;99.90;;;;;;4994431;28;20044;-73
2023/10/06 01:46:55;;;;;;;6.38;2.85;;;12.50;99.90;;;;;;5002179;28;21046;-74
2023/10/06 01:49:22;;;;;;;4.38;2.42;;;12.50;99.90;;;;;;5003244;28;20038;-74
2023/10/06 01:51:52;;;;;;;4.75;2.78;;;12.40;99.90;;;;;;5000612;28;20040;-73
2023/10/06 01:54:27;;;;;;;5.32;2.78;;;12.40;99.90;;;;;;4992017;28;20037;-74
2023/10/06 01:56:54;;;;;;;5.38;3.13;;;12.40;99.90;;;;;;4977328;28;20044;-73
2023/10/06 01:59:20;;;;;;;5.78;3.20;;;12.40;99.90;;;;;;4978953;28;20041;-73
2023/10/06 02:01:48;;;;;;;4.68;2.35;;;12.40;99.90;;;;;;4994155;28;20033;-73
2023/10/06 02:04:14;;;;;;;5.75;2.38;;;12.40;99.90;;;;;;4997538;28;20107;-73
2023/10/06 02:06:51;;;;;;;6.57;3.22;;;12.40;99.90;;;;;;5001963;28;20052;-73
2023/10/06 02:09:20;;;;;;;5.30;2.60;;;12.40;99.90;;;;;;4973462;28;20037;-73
2023/10/06 02:11:53;;;;;;;5.53;2.25;;;12.30;99.90;;;;;;4995591;28;20037;-74
2023/10/06 02:14:20;;;;;;;4.70;2.97;;;12.30;99.90;;;;;;4977349;28;20510;-73
2023/10/06 02:16:48;;;;;;;5.93;3.10;;;12.30;99.90;;;;;;4995186;28;20034;-74
2023/10/06 02:19:18;;;;;;;7.93;3.90;;;12.30;99.90;;;;;;4975386;28;20044;-73
2023/10/06 02:21:51;;;;;;;8.02;3.30;;;12.30;99.90;;;;;;4976290;28;20345;-74
2023/10/06 02:24:18;;;;;;;6.43;3.13;;;12.30;99.90;;;;;;4980615;28;20034;-73
2023/10/06 02:26:57;;;;;;;6.40;3.28;;;12.20;99.90;;;;;;4997836;28;21105;-74
2023/10/06 02:29:24;;;;;;;5.53;3.92;;;12.20;99.90;;;;;;5004454;28;20484;-74
2023/10/06 02:31:51;;;;;;;4.50;3.60;;;12.20;99.90;;;;;;4978711;28;20099;-74
2023/10/06 02:34:29;;;;;;;4.68;3.05;;;12.30;99.90;;;;;;4993813;28;20030;-73
2023/10/06 02:36:56;;;;;;;6.25;3.45;;;12.30;99.90;;;;;;4991505;28;20045;-73
2023/10/06 02:39:27;;;;;;;6.15;3.40;;;12.20;99.90;;;;;;4992684;28;20396;-73
2023/10/06 02:41:57;;;;;;;6.45;3.33;;;12.30;99.90;;;;;;4995978;28;20100;-74
2023/10/06 02:44:25;;;;;;;5.50;3.28;;;12.20;99.90;;;;;;4996191;28;20039;-73
2023/10/06 02:46:52;;;;;;;8.05;3.45;;;12.20;99.90;;;;;;5003130;28;20047;-73
2023/10/06 02:49:38;;;;;;;8.45;3.78;;;12.30;99.90;;;;;;4976904;28;20036;-73
2023/10/06 02:52:21;;;;;;;5.45;2.80;;;12.20;99.90;;;;;;4960663;28;20037;-73
2023/10/06 02:57:37;;;;;;;6.57;4.07;;;12.20;99.90;;;;;;4993495;28;20048;-74
2023/10/06 03:03:03;;;;;;;5.90;3.75;;;12.20;99.90;;;;;;4994735;28;20048;-74
2023/10/06 03:05:32;;;;;;;4.13;2.90;;;12.20;99.90;;;;;;4980676;28;20026;-74
2023/10/06 03:08:11;;;;;;;4.40;2.53;;;12.20;99.90;;;;;;5019060;28;20064;-73
2023/10/06 03:10:43;;;;;;;6.63;3.45;;;12.20;99.90;;;;;;5008878;28;20376;-73
2023/10/06 03:13:15;;;;;;;8.00;3.60;;;12.20;99.90;;;;;;5037430;28;20041;-73
2023/10/06 03:15:46;;;;;;;8.27;3.88;;;12.20;99.90;;;;;;5006704;28;20295;-73
2023/10/06 03:18:15;;;;;;;9.57;4.25;;;12.20;99.90;;;;;;5019152;28;20104;-74
2023/10/06 03:20:49;;;;;;;5.20;3.20;;;12.10;99.90;;;;;;5018214;28;20025;-74
2023/10/06 03:23:38;;;;;;;6.15;3.20;;;12.10;99.90;;;;;;5016028;28;20059;-73
2023/10/06 03:26:09;;;;;;;6.43;3.17;;;12.10;99.90;;;;;;4999687;28;20041;-73
2023/10/06 03:28:43;;;;;;;5.22;2.15;;;12.10;99.90;;;;;;5000038;28;20036;-73
2023/10/06 03:31:23;;;;;;;5.78;2.03;;;12.10;99.90;;;;;;5011345;28;20471;-73
2023/10/06 03:33:55;;;;;;;4.55;2.35;;;12.10;99.90;;;;;;5003475;28;20044;-74
2023/10/06 03:36:45;;;;;;;6.00;2.47;;;12.10;99.90;;;;;;5001373;28;20091;-73
2023/10/06 03:39:21;;;;;;;4.70;2.38;;;12.10;99.90;;;;;;5014789;28;20049;-73
2023/10/06 03:41:52;;;;;;;7.13;2.92;;;12.00;99.90;;;;;;5004487;28;20048;-74
2023/10/06 03:44:26;;;;;;;4.82;2.15;;;12.00;99.90;;;;;;5000582;28;20029;-73
2023/10/06 03:46:55;;;;;;;4.53;2.20;;;12.00;99.90;;;;;;5002628;28;20039;-74
2023/10/06 03:49:22;;;;;;;4.38;2.30;;;12.00;99.90;;;;;;5002821;28;20025;-73
2023/10/06 03:51:48;;;;;;;6.10;2.72;;;12.00;99.90;;;;;;5017216;28;20041;-74
2023/10/06 03:54:15;;;;;;;5.55;2.63;;;12.00;99.90;;;;;;5016498;28;20029;-74
2023/10/06 03:56:45;;;;;;;5.38;2.78;;;12.00;99.90;;;;;;5017973;28;20504;-74
2023/10/06 03:59:12;;;;;;;5.47;2.38;;;12.00;99.90;;;;;;5000800;28;20021;-74
2023/10/06 04:01:39;;;;;;;7.90;2.97;;;12.00;99.90;;;;;;5018527;28;20029;-74
2023/10/06 04:04:07;;;;;;;4.82;2.30;;;12.00;99.90;;;;;;5018929;28;20033;-74
2023/10/06 04:06:35;;;;;;;4.97;2.22;;;12.00;99.90;;;;;;5017820;28;20029;-75
2023/10/06 04:09:02;;;;;;;6.68;2.72;;;12.00;99.90;;;;;;5020475;28;20483;-73
2023/10/06 04:11:31;;;;;;;5.00;2.80;;;12.10;99.90;;;;;;5020611;28;20036;-74
2023/10/06 04:13:58;;;;;;;7.72;3.40;;;12.00;99.90;;;;;;5019074;28;20025;-74
2023/10/06 04:16:25;;;;;;;8.48;2.83;;;12.10;99.90;;;;;;5015671;28;20045;-73
2023/10/06 04:18:51;;;;;;;6.97;3.80;;;12.10;99.90;;;;;;5002174;28;20026;-74
2023/10/06 04:21:18;;;;;;;7.53;3.72;;;12.10;99.90;;;;;;5018382;28;20029;-74
2023/10/06 04:23:44;;;;;;;10.35;4.57;;;12.10;99.90;;;;;;5017715;28;20472;-74
2023/10/06 04:26:15;;;;;;;7.85;3.50;;;12.10;99.90;;;;;;5000559;28;20037;-73
2023/10/06 04:28:45;;;;;;;7.53;3.20;;;12.10;99.90;;;;;;4994017;28;20045;-74
2023/10/06 04:31:12;;;;;;;5.38;2.85;;;12.10;99.90;;;;;;4999371;28;20045;-74
2023/10/06 04:33:38;;;;;;;6.07;3.15;;;12.10;99.90;;;;;;5002372;28;20033;-74
2023/10/06 04:36:08;;;;;;;4.88;2.95;;;12.10;99.90;;;;;;5020349;28;20037;-74
2023/10/06 04:38:39;;;;;;;7.60;3.45;;;12.10;99.90;;;;;;4984737;28;20483;-74
2023/10/06 04:41:08;;;;;;;6.07;2.80;;;12.10;99.90;;;;;;5016427;28;20037;-74
2023/10/06 04:43:36;;;;;;;4.75;2.58;;;12.10;99.90;;;;;;5004354;28;20040;-73
2023/10/06 04:46:05;;;;;;;4.40;2.72;;;12.10;99.90;;;;;;5015819;28;20033;-74
2023/10/06 04:48:32;;;;;;;4.88;2.40;;;12.00;99.90;;;;;;5015762;28;20029;-74
2023/10/06 04:51:02;;;;;;;5.63;2.47;;;12.00;99.90;;;;;;5017077;28;20036;-73
2023/10/06 04:53:30;;;;;;;4.28;2.13;;;12.00;99.90;;;;;;5001197;28;20472;-74
2023/10/06 04:55:57;;;;;;;7.05;2.55;;;12.00;99.90;;;;;;5001509;28;20037;-75
2023/10/06 04:58:24;;;;;;;5.10;2.95;;;12.00;99.90;;;;;;4985452;28;20029;-74
2023/10/06 05:00:53;;;;;;;6.05;3.40;;;12.00;99.90;;;;;;5000105;28;20072;-74
2023/10/06 05:03:20;;;;;;;8.68;3.53;;;12.00;99.90;;;;;;4985356;28;20041;-75
2023/10/06 05:05:46;;;;;;;5.88;2.92;;;12.00;99.90;;;;;;5030118;28;20037;-74
2023/10/06 05:08:14;;;;;;;9.25;3.80;;;12.00;99.90;;;;;;5016662;28;20400;-74
2023/10/06 05:10:41;;;;;;;7.00;3.83;;;12.00;99.90;;;;;;5030010;28;20040;-74
2023/10/06 05:13:10;;;;;;;5.20;2.67;;;12.00;99.90;;;;;;4986468;28;20038;-74
2023/10/06 05:15:40;;;;;;;7.78;3.67;;;12.00;99.90;;;;;;5001025;28;20037;-74
2023/10/06 05:18:07;;;;;;;7.25;3.88;;;12.00;99.90;;;;;;5000581;28;20034;-75
2023/10/06 05:20:35;;;;;;;6.35;3.75;;;12.00;99.90;;;;;;5016776;28;20160;-74
2023/10/06 05:23:10;;;;;;;8.02;4.07;;;12.00;99.90;;;;;;5000684;28;20591;-74
2023/10/06 05:25:37;;;;;;;8.55;4.03;;;12.10;99.90;;;;;;4999433;28;20457;-74
2023/10/06 05:28:07;;;;;;;9.70;5.25;;;12.10;99.90;;;;;;5016067;28;20045;-74
2023/10/06 05:30:33;;;;;;;6.82;3.30;;;12.10;99.90;;;;;;5019456;28;20041;-76
2023/10/06 05:33:00;;;;;;;7.47;4.20;;;12.10;99.90;;;;;;5015871;28;20072;-74
2023/10/06 05:35:36;;;;;;;9.60;4.88;;;12.10;99.90;;;;;;5015840;28;20013;-74
2023/10/06 05:38:13;;;;;;;7.72;4.85;;;12.20;99.90;;;;;;5016358;28;20037;-74
2023/10/06 05:40:44;;;;;;;10.52;6.15;;;12.10;99.90;;;;;;5017373;28;20037;-73
2023/10/06 05:43:16;;;;;;;8.88;4.90;;;12.10;99.90;;;;;;5019035;28;20034;-73
2023/10/06 05:45:43;;;;;;;6.90;4.28;;;12.10;99.90;;;;;;4994991;28;20029;-75
2023/10/06 05:48:15;;;;;;;11.18;5.68;;;12.20;99.90;;;;;;5017036;28;20034;-73
2023/10/06 05:50:43;;;;;;;9.95;5.05;;;12.20;99.90;;;;;;5021028;28;20033;-75
2023/10/06 05:53:12;;;;;;;8.98;5.13;;;12.20;99.90;;;;;;5003736;28;20037;-74
2023/10/06 05:55:42;;;;;;;9.70;5.13;;;12.20;99.90;;;;;;5005706;28;20349;-72
2023/10/06 05:58:14;;;;;;;8.25;5.43;;;12.20;99.90;;;;;;5039427;28;20033;-75
2023/10/06 06:00:58;;;;;;;10.35;5.18;;;12.20;99.90;;;;;;5022222;28;20032;-74
2023/10/06 06:03:24;;;;;;;12.88;7.07;;;12.30;99.90;;;;;;5018845;28;20041;-75
2023/10/06 06:06:02;;;;;;;9.85;6.97;;;12.30;99.90;;;;;;5002382;28;20041;-74
2023/10/06 06:08:30;;;;;;;8.55;5.82;;;12.30;99.90;;;;;;5020544;28;20038;-74
2023/10/06 06:10:56;;;;;;;11.20;6.28;;;12.40;99.90;;;;;;5017395;28;20029;-74
2023/10/06 06:13:23;;;;;;;9.90;5.60;;;12.40;99.90;;;;;;4996760;28;20538;-73
2023/10/06 06:15:49;;;;;;;8.68;5.78;;;12.50;99.90;;;;;;5017379;28;20034;-74
2023/10/06 06:18:15;;;;;;;12.18;6.65;;;12.60;99.90;;;;;;5002278;28;20029;-74
2023/10/06 06:20:42;;;;;;;9.50;5.45;;;12.60;99.90;;;;;;5021914;28;20476;-74
2023/10/06 06:23:12;;;;;;;10.13;4.95;;;12.70;99.90;;;;;;5020342;28;20028;-74
2023/10/06 06:25:44;;;;;;;7.78;5.25;;;12.70;99.90;;;;;;5033316;28;21493;-74
2023/10/06 06:28:16;;;;;;;10.68;4.43;;;12.80;99.90;;;;;;5004985;28;20033;-74
2023/10/06 06:30:43;;;;;;;8.57;4.47;;;12.80;99.90;;;;;;5035832;28;20025;-73
2023/10/06 06:33:12;;;;;;;7.60;3.65;;;12.80;99.90;;;;;;4990303;28;20056;-74
2023/10/06 06:35:42;;;;;;;8.77;4.00;;;12.90;99.90;;;;;;5020225;28;20013;-74
2023/10/06 06:38:12;;;;;;;9.48;4.40;;;13.00;99.90;;;;;;5002766;28;20523;-74
2023/10/06 06:40:40;;;;;;;8.60;3.58;;;13.00;99.90;;;;;;5019500;28;20476;-74
2023/10/06 06:43:09;;;;;;;5.75;3.10;;;13.10;99.90;;;;;;5007088;28;20045;-73
2023/10/06 06:45:39;;;;;;;8.02;3.35;;;13.20;99.90;;;;;;5018955;28;20044;-74
2023/10/06 06:48:12;;;;;;;7.80;2.65;;;13.30;99.90;;;;;;5000155;28;20047;-74
2023/10/06 06:50:43;;;;;;;8.20;3.90;;;13.40;99.90;;;;;;5020328;28;20021;-74
2023/10/06 06:53:11;;;;;;;6.88;2.63;;;13.40;99.90;;;;;;5020898;28;20403;-73
2023/10/06 06:55:38;;;;;;;5.55;2.70;;;13.40;99.90;;;;;;5017569;28;20036;-74
2023/10/06 06:58:10;;;;;;;4.68;3.15;;;13.50;99.90;;;;;;5018419;28;20045;-74
2023/10/06 07:00:41;;;;;;;6.70;2.95;;;13.50;99.90;;;;;;5022714;28;20037;-73
2023/10/06 07:03:08;;;;;;;5.65;3.00;;;13.50;99.90;;;;;;5022648;28;20048;-74
2023/10/06 07:05:35;;;;;;;7.53;2.92;;;13.50;99.90;;;;;;5005358;28;20037;-74
2023/10/06 07:08:04;;;;;;;6.00;2.30;;;13.50;99.90;;;;;;5021091;28;20040;-74
2023/10/06 07:10:30;;;;;;;5.15;2.47;;;13.50;99.90;;;;;;5021923;28;20361;-74
2023/10/06 07:13:00;;;;;;;6.35;2.67;;;13.60;99.90;;;;;;5001015;28;20037;-74
2023/10/06 07:15:29;;;;;;;7.38;2.58;;;13.60;99.90;;;;;;5018908;28;20033;-73
2023/10/06 07:17:58;;;;;;;7.28;3.13;;;13.50;99.90;;;;;;5001044;28;20029;-74
2023/10/06 07:20:27;;;;;;;5.43;2.95;;;13.50;99.90;;;;;;5031741;28;20025;-74
2023/10/06 07:22:56;;;;;;;6.22;3.60;;;13.50;99.90;;;;;;5002569;28;20041;-74
2023/10/06 07:25:24;;;;;;;4.88;2.05;;;13.50;99.90;;;;;;5004639;28;20041;-74
2023/10/06 07:27:57;;;;;;;5.20;2.20;;;13.50;99.90;;;;;;5003493;28;20034;-74
2023/10/06 07:30:29;;;;;;;8.77;2.80;;;13.50;99.90;;;;;;5017472;28;20040;-74
2023/10/06 07:32:56;;;;;;;4.80;1.80;;;13.60;99.90;;;;;;5019401;28;20041;-74
2023/10/06 07:38:13;;;;;;;6.53;2.83;;;13.70;99.90;;;;;;5020720;28;20041;-74
2023/10/06 07:40:42;;;;;;;11.27;3.10;;;13.90;99.90;;;;;;5005205;28;20401;-74
2023/10/06 07:43:10;;;;;;;7.57;3.78;;;14.00;99.90;;;;;;5002657;28;20037;-75
2023/10/06 07:45:36;;;;;;;7.50;3.53;;;14.10;99.90;;;;;;5014183;28;20468;-74
2023/10/06 07:48:07;;;;;;;6.25;2.58;;;14.20;99.90;;;;;;5013117;28;20126;-75
2023/10/06 07:50:34;;;;;;;7.03;2.35;;;14.40;99.90;;;;;;5000387;28;20045;-75
2023/10/06 07:53:01;;;;;;;5.80;2.53;;;14.40;99.90;;;;;;5001005;28;20037;-75
2023/10/06 07:55:28;;;;;;;5.82;2.70;;;14.50;99.90;;;;;;5019446;28;20037;-75
2023/10/06 07:57:54;;;;;;;6.00;2.80;;;14.60;99.90;;;;;;5000771;28;20427;-74
2023/10/06 08:00:28;;;;;;;5.47;2.50;;;14.70;99.90;;;;;;5001138;28;20036;-74
2023/10/06 08:02:55;;;;;;;11.90;2.88;;;14.80;99.90;;;;;;5018518;28;20052;-75
2023/10/06 08:05:21;;;;;;;5.57;2.67;;;14.90;99.90;;;;;;4998905;28;20543;-75
2023/10/06 08:07:48;;;;;;;5.82;2.45;;;15.00;99.90;;;;;;5017401;28;20050;-75
2023/10/06 08:10:16;;;;;;;7.78;2.50;;;15.10;99.90;;;;;;5017097;28;20040;-75
2023/10/06 08:12:49;;;;;;;8.23;2.00;;;15.30;99.90;;;;;;5002338;28;20455;-74
2023/10/06 08:15:17;;;;;;;4.60;2.20;;;15.40;99.90;;;;;;4985233;28;20507;-75
2023/10/06 08:17:45;;;;;;;5.40;2.00;;;15.40;99.90;;;;;;5017968;28;20033;-74
2023/10/06 08:20:12;;;;;;;3.35;1.95;;;15.50;99.90;;;;;;5002493;28;20486;-75
2023/10/06 08:22:39;;;;;;;4.70;1.75;;;15.50;99.90;;;;;;5001309;28;20029;-74
2023/10/06 08:25:06;;;;;;;8.55;2.40;;;15.50;99.90;;;;;;5000161;28;20028;-74
2023/10/06 08:27:34;;;;;;;6.70;2.50;;;15.60;99.90;;;;;;5002057;28;20037;-74
2023/10/06 08:30:01;;;;;;;4.90;2.15;;;15.70;99.90;;;;;;5002728;28;20029;-74
2023/10/06 08:32:28;;;;;;;5.75;2.17;;;15.90;99.90;;;;;;5001720;28;20057;-74
2023/10/06 08:34:55;;;;;;;3.85;1.88;;;16.00;99.90;;;;;;5017293;28;20034;-74
2023/10/06 08:37:21;;;;;;;5.32;2.45;;;16.20;99.90;;;;;;4999921;28;20526;-75
2023/10/06 08:39:47;;;;;;;3.95;1.75;;;16.40;99.90;;;;;;5016851;28;20373;-75
2023/10/06 08:42:17;;;;;;;5.65;2.03;;;16.50;99.90;;;;;;4985686;28;20036;-74
2023/10/06 08:44:45;;;;;;;5.43;2.53;;;16.70;99.90;;;;;;5012419;28;20029;-75
2023/10/06 08:47:15;;;;;;;5.47;1.67;;;16.80;99.90;;;;;;4996702;28;20646;-75
2023/10/06 08:49:46;;;;;;;9.82;2.38;;;16.90;99.90;;;;;;5033048;28;20039;-75
2023/10/06 08:52:17;;;;;;;5.38;2.40;;;17.00;99.90;;;;;;5000860;28;20331;-75
2023/10/06 08:54:45;;;;;;;7.45;2.58;;;17.10;99.90;;;;;;5000121;28;20038;-75
2023/10/06 08:57:11;;;;;;;5.55;1.80;;;17.20;99.90;;;;;;5015886;28;20053;-75
2023/10/06 08:59:39;;;;;;;7.32;2.00;;;17.40;99.90;;;;;;4984025;28;20029;-75
2023/10/06 09:02:07;;;;;;;5.45;1.83;;;17.50;99.90;;;;;;5016534;28;20033;-75
2023/10/06 09:04:37;;;;;;;7.20;2.05;;;17.70;99.90;;;;;;5000321;28;20499;-75
2023/10/06 09:07:15;;;;;;;4.88;1.70;;;17.80;99.90;;;;;;4981356;28;20038;-75
2023/10/06 09:09:43;;;;;;;26.25;14.77;;;18.00;99.90;;;;;;5015889;28;20283;-75
2023/10/06 09:12:22;;;;;;;10.38;4.63;;;18.10;99.90;;;;;;5001712;28;20492;-75
2023/10/06 09:14:56;;;;;;;10.05;4.05;;;18.10;99.90;;;;;;4998631;28;20044;-75
2023/10/06 09:17:33;;;;;;;9.93;2.70;;;18.20;99.90;;;;;;5019622;28;20022;-74
2023/10/06 09:20:00;;;;;;;5.82;1.67;;;18.20;99.90;;;;;;5036073;28;20493;-75
2023/10/06 09:22:30;;;;;;;9.10;2.30;;;18.20;99.90;;;;;;5021087;28;20045;-75
2023/10/06 09:24:59;;;;;;;6.05;2.08;;;18.30;99.90;;;;;;5021829;28;20022;-74
2023/10/06 09:27:26;;;;;;;9.70;2.45;;;18.40;99.90;;;;;;5022058;28;20457;-74
2023/10/06 09:30:00;;;;;;;7.57;2.47;;;18.50;99.90;;;;;;5003759;28;20369;-74
2023/10/06 09:32:26;;;;;;;4.07;1.73;;;18.60;99.90;;;;;;5007450;28;20048;-74
2023/10/06 09:34:57;;;;;;;7.30;2.15;;;18.70;99.90;;;;;;5002116;28;20025;-75
2023/10/06 09:37:26;;;;;;;8.38;2.30;;;18.70;99.90;;;;;;5020327;28;20048;-73
2023/10/06 09:39:58;;;;;;;7.40;2.33;;;18.80;99.90;;;;;;4995949;28;20056;-74
2023/10/06 09:42:31;;;;;;;7.90;2.53;;;18.70;99.90;;;;;;5016518;28;20029;-75
2023/10/06 09:45:08;;;;;;;6.18;1.90;;;18.70;99.90;;;;;;5000221;28;20060;-74
2023/10/06 09:47:38;;;;;;;6.05;2.45;;;18.70;99.90;;;;;;5000994;28;20492;-75
2023/10/06 09:50:07;;;;;;;7.50;2.85;;;18.70;99.90;;;;;;4995941;28;20629;-75
2023/10/06 09:52:39;;;;;;;6.47;1.95;;;18.70;99.90;;;;;;5014731;28;20408;-75
2023/10/06 09:55:06;;;;;;;5.97;1.98;;;18.70;99.90;;;;;;5016272;28;20029;-74
2023/10/06 09:57:33;;;;;;;6.30;1.73;;;18.70;99.90;;;;;;5016972;28;20022;-76
2023/10/06 10:00:00;;;;;;;8.00;2.20;;;18.80;99.90;;;;;;4996935;28;20882;-75
2023/10/06 10:02:30;;;;;;;3.28;1.13;;;18.90;99.90;;;;;;5013591;28;20392;-83
2023/10/06 10:05:02;;;;;;;6.75;2.08;;;18.90;99.90;;;;;;4997627;28;20491;-78
2023/10/06 10:07:29;;;;;;;4.93;1.67;;;19.00;99.90;;;;;;5033113;28;20040;-79
2023/10/06 10:09:57;;;;;;;9.20;1.85;;;19.20;99.90;;;;;;5001197;28;20033;-77
2023/10/06 10:12:27;;;;;;;5.65;2.00;;;19.60;99.90;;;;;;5002689;28;20033;-75
2023/10/06 10:15:02;;;;;;;5.97;2.30;;;19.90;99.90;;;;;;5000277;28;20072;-76
2023/10/06 10:17:59;;;;;;;4.88;2.20;;;20.20;99.90;;;;;;5003798;28;22654;-76
2023/10/06 10:20:26;;;;;;;7.15;1.92;;;20.40;99.90;;;;;;5003592;28;20037;-76
2023/10/06 10:22:56;;;;;;;6.15;1.90;;;20.70;99.90;;;;;;5002742;28;20029;-76
2023/10/06 10:25:23;;;;;;;3.22;1.20;;;21.20;99.90;;;;;;5001628;28;20074;-76
2023/10/06 10:28:14;;;;;;;5.55;1.73;;;21.50;99.90;;;;;;5018807;28;20041;-76
2023/10/06 10:30:50;;;;;;;5.57;1.80;;;21.80;99.90;;;;;;5033373;28;20036;-76
2023/10/06 10:33:29;;;;;;;6.00;1.60;;;22.10;99.90;;;;;;5021115;28;20041;-76
2023/10/06 10:36:17;;;;;;;6.05;2.10;;;22.30;99.90;;;;;;5017342;28;20305;-75
2023/10/06 10:38:45;;;;;;;8.65;2.08;;;22.40;99.90;;;;;;4983759;28;20393;-76
2023/10/06 10:41:12;;;;;;;4.32;1.42;;;22.50;99.90;;;;;;5002943;28;20040;-76
2023/10/06 10:43:41;;;;;;;4.95;1.23;;;22.60;99.90;;;;;;5013509;28;20037;-76
2023/10/06 10:46:12;;;;;;;5.88;1.65;;;23.00;99.90;;;;;;5017538;28;20323;-75
2023/10/06 10:48:47;;;;;;;7.38;1.90;;;23.40;99.90;;;;;;5019043;28;20396;-75
2023/10/06 10:51:15;;;;;;;5.43;1.65;;;23.40;99.90;;;;;;5021290;28;20056;-76
2023/10/06 10:53:43;;;;;;;5.45;1.77;;;23.30;99.90;;;;;;5020557;28;20050;-76
2023/10/06 10:56:26;;;;;;;3.38;1.35;;;22.90;99.90;;;;;;5016891;28;20036;-77
2023/10/06 10:58:54;;;;;;;3.45;1.30;;;22.50;99.90;;;;;;5019193;28;20045;-77
2023/10/06 11:01:24;;;;;;;5.50;1.85;;;22.10;99.90;;;;;;4999456;28;20037;-79
2023/10/06 11:04:09;;;;;;;6.65;2.20;;;21.80;99.90;;;;;;5002206;28;20385;-77
2023/10/06 11:06:39;;;;;;;5.40;1.42;;;21.50;99.90;;;;;;5002594;28;20036;-77
2023/10/06 11:12:16;;;;;;;5.53;1.90;;;21.20;99.90;;;;;;5022934;28;20094;-77
2023/10/06 11:14:43;;;;;;;6.88;1.33;;;21.10;99.90;;;;;;5033010;28;20460;-77
2023/10/06 11:17:11;;;;;;;6.68;1.58;;;20.90;99.90;;;;;;5016541;28;20025;-76
2023/10/06 11:19:40;;;;;;;4.95;1.70;;;20.90;99.90;;;;;;5017060;28;20040;-76
2023/10/06 11:22:14;;;;;;;3.78;1.58;;;20.90;99.90;;;;;;5018294;28;20049;-76
2023/10/06 11:24:44;;;;;;;4.97;1.80;;;20.90;99.90;;;;;;4998158;28;20048;-77
2023/10/06 11:27:16;;;;;;;6.53;2.05;;;20.90;99.90;;;;;;5019232;28;20040;-76
2023/10/06 11:29:46;;;;;;;5.13;1.85;;;21.10;99.90;;;;;;5010523;28;20033;-77
2023/10/06 11:32:13;;;;;;;5.85;1.80;;;21.20;99.90;;;;;;5015725;28;20033;-76
2023/10/06 11:34:48;;;;;;;6.53;1.63;;;21.30;99.90;;;;;;5000956;28;20029;-76
2023/10/06 11:37:18;;;;;;;5.65;1.58;;;21.40;99.90;;;;;;5017850;28;20369;-78
2023/10/06 11:39:45;;;;;;;6.43;2.00;;;21.50;99.90;;;;;;5015650;28;20045;-77
2023/10/06 11:42:25;;;;;;;5.97;1.52;;;21.50;99.90;;;;;;5001888;28;20487;-77
2023/10/06 11:44:53;;;;;;;7.72;2.17;;;21.70;99.90;;;;;;5000164;28;20041;-77
2023/10/06 11:47:22;;;;;;;5.88;1.60;;;21.80;99.90;;;;;;5015851;28;20025;-77
2023/10/06 11:49:58;;;;;;;8.40;1.90;;;21.90;99.90;;;;;;5017398;28;20029;-78
2023/10/06 11:52:25;;;;;;;4.97;1.75;;;21.80;99.90;;;;;;5002938;28;20041;-77
2023/10/06 11:54:51;;;;;;;4.07;1.52;;;21.90;99.90;;;;;;5017992;28;20037;-77
2023/10/06 11:57:20;;;;;;;5.20;2.08;;;22.10;99.90;;;;;;5018551;28;20029;-77
2023/10/06 11:59:50;;;;;;;8.50;2.20;;;22.40;99.90;;;;;;5003009;28;20033;-76
2023/10/06 12:02:17;;;;;;;7.38;1.90;;;22.70;99.90;;;;;;5017459;28;20045;-76
2023/10/06 12:04:44;;;;;;;8.45;2.10;;;22.90;99.90;;;;;;5030692;28;20368;-75
2023/10/06 12:07:21;;;;;;;23.30;11.90;;;23.10;99.90;;;;;;5016379;28;20041;-76
2023/10/06 12:09:48;;;;;;;12.07;4.72;;;23.40;99.90;;;;;;5013774;28;20043;-76
2023/10/06 12:12:18;;;;;;;6.85;2.97;;;23.70;99.90;;;;;;5016639;28;20519;-75
2023/10/06 12:14:47;;;;;;;8.68;2.85;;;23.90;99.90;;;;;;4995371;28;20029;-76
2023/10/06 12:17:15;;;;;;;4.45;1.88;;;24.40;99.90;;;;;;5000706;28;20781;-76
2023/10/06 12:19:44;;;;;;;3.97;1.35;;;25.10;99.90;;;;;;4984382;28;20033;-82
2023/10/06 12:22:13;;;;;;;5.53;1.70;;;25.80;99.90;;;;;;5016524;28;20392;-77
2023/10/06 12:24:40;;;;;;;10.00;2.05;;;25.90;99.90;;;;;;5017278;28;20053;-76
2023/10/06 12:27:09;;;;;;;4.35;1.70;;;25.90;99.90;;;;;;5019188;28;20033;-76
2023/10/06 12:29:35;;;;;;;4.97;1.70;;;26.10;99.90;;;;;;4997703;28;20052;-76
2023/10/06 12:32:02;;;;;;;7.65;2.33;;;26.30;99.90;;;;;;5017513;28;20029;-76
2023/10/06 12:34:28;;;;;;;4.97;1.65;;;26.40;99.90;;;;;;5000566;28;20507;-76
2023/10/06 12:37:01;;;;;;;6.22;2.00;;;26.90;99.90;;;;;;5016879;28;20052;-76
2023/10/06 12:39:34;;;;;;;5.25;1.27;;;27.80;99.90;;;;;;5018867;28;20017;-76
2023/10/06 12:42:05;;;;;;;8.82;1.95;;;28.40;99.90;;;;;;5030479;28;20030;-76
2023/10/06 12:44:34;;;;;;;5.72;1.58;;;28.60;99.90;;;;;;5011867;28;20041;-76
2023/10/06 12:47:03;;;;;;;5.55;1.77;;;28.70;99.90;;;;;;5000487;28;20032;-76
2023/10/06 12:49:33;;;;;;;5.43;2.28;;;28.30;99.60;;;;;;5030921;28;20040;-76
2023/10/06 12:51:59;;;;;;;7.22;1.90;;;27.60;99.10;;;;;;4998853;28;20041;-76
2023/10/06 12:54:26;;;;;;;6.68;2.40;;;27.00;99.70;;;;;;5023228;28;20049;-73
2023/10/06 12:56:52;;;;;;;6.55;2.50;;;26.50;99.80;;;;;;5022213;28;20518;-75
2023/10/06 12:59:18;;;;;;;4.47;1.38;;;26.00;99.90;;;;;;5023202;28;20029;-74
2023/10/06 13:01:46;;;;;;;4.13;1.60;;;25.50;99.90;;;;;;5001291;28;20036;-75
2023/10/06 13:04:13;;;;;;;6.20;1.90;;;25.10;99.90;;;;;;5025054;28;20582;-75
2023/10/06 13:06:40;;;;;;;7.35;2.63;;;24.70;99.90;;;;;;5022756;28;20547;-75
2023/10/06 13:09:08;;;;;;;9.30;3.10;;;24.50;99.90;;;;;;5021944;28;20037;-75
2023/10/06 13:11:35;;;;;;;6.97;2.50;;;24.30;99.90;;;;;;5004168;28;20126;-74